• Join FlightAware (Why Join?)
  • Login
  • US Flag 
01:42AM EST


 

Airport Tracker/Info


-or-


 

Live Flight TrackerFlight Track Log ✈ QTR503 ✈ 28-Jun-2013 ✈ HECA / CAI - OTBD

Flight Track Log - Related Links

Times and Time Zones

All times are in EDT time to prevent confusion due to time zone crossing. See the QTR503 flight status page for this flight to view local times or setup timezone preferences in your user account.

Time Position Orientation Groundspeed Altitude Reporting Facility
EDT Latitude Longitude Course Direction KTS MPH feet Rate Location/Type
12:56AM 29.9100 31.6570 154° Southeast 301 346 9,500  Level FlightAware
12:57AM 29.8490 31.6890 156° South 323 372 10,700 720 Climbing FlightAware
12:57AM 29.7990 31.7160 155° Southeast 328 377 10,700  Level FlightAware
12:58AM 29.7550 31.7400 155° Southeast 328 377 10,700  Level FlightAware
12:59AM 29.7130 31.7630 155° Southeast 328 377 10,700 2,100 Level FlightAware
01:00AM 29.5860 31.8310 155° Southeast 401 461 14,000 2,220 Climbing FlightAware
01:01AM 29.4640 31.9100 151° Southeast 401 461 15,600 780 Climbing FlightAware
01:02AM 29.3950 31.9470 155° Southeast 401 461 15,600  Level FlightAware
01:02AM 29.3410 31.9760 155° Southeast 401 461 15,600  Level FlightAware
01:03AM 29.2900 32.0030 155° Southeast 401 461 15,600  Level FlightAware
01:04AM 29.2210 32.0400 155° Southeast 401 461 15,600  Level FlightAware
01:04AM 29.1700 32.0680 154° Southeast 401 461 15,600 -60 Level FlightAware
01:07AM 29.1334 32.3607 98° East  Level Estimated
01:08AM 29.1166 32.4927 98° East  Level Estimated
01:09AM 29.0997 32.6246 98° East  Level Estimated
01:10AM 29.0827 32.7565 98° East  Level Estimated
01:11AM 29.0656 32.8884 98° East  Level Estimated
01:12AM 29.0483 33.0201 98° East  Level Estimated
01:13AM 29.0310 33.1519 99° East  Level Estimated
01:14AM 29.0134 33.2836 99° East  Level Estimated
01:15AM 28.9958 33.4153 99° East  Level Estimated
01:16AM 28.9780 33.5469 99° East  Level Estimated
01:17AM 28.9601 33.6785 99° East  Level Estimated
01:18AM 28.9421 33.8100 99° East  Level Estimated
01:19AM 28.9239 33.9415 99° East  Level Estimated
01:20AM 28.9057 34.0730 99° East  Level Estimated
01:21AM 28.8873 34.2044 99° East  Level Estimated
01:22AM 28.8687 34.3357 99° East  Level Estimated
01:23AM 28.8500 34.4670 99° East  Level Estimated
01:24AM 28.8312 34.5983 99° East  Level Estimated
01:25AM 28.8123 34.7295 99° East  Level Estimated
01:26AM 28.7933 34.8606 99° East  Level Estimated
01:27AM 28.7741 34.9917 99° East  Level Estimated
01:28AM 28.7548 35.1228 100° East  Level Estimated
01:29AM 28.7382 35.2351 100° East  Level Estimated
01:30AM 28.7214 35.3474 100° East  Level Estimated
01:31AM 28.7046 35.4597 100° East  Level Estimated
01:32AM 28.6877 35.5719 100° East  Level Estimated
01:33AM 28.6707 35.6841 100° East  Level Estimated
01:34AM 28.6535 35.7962 100° East  Level Estimated
01:35AM 28.6363 35.9083 100° East  Level Estimated
01:36AM 28.6190 36.0204 100° East  Level Estimated
01:37AM 28.6017 36.1324 100° East  Level Estimated
01:38AM 28.5842 36.2444 100° East  Level Estimated
01:39AM 28.5666 36.3563 100° East  Level Estimated
01:40AM 28.5490 36.4683 100° East  Level Estimated
01:41AM 28.5312 36.5801 100° East  Level Estimated
01:42AM 28.5133 36.6920 100° East  Level Estimated
01:43AM 28.4954 36.8038 100° East  Level Estimated
01:44AM 28.4774 36.9156 100° East  Level Estimated
01:45AM 28.4593 37.0273 100° East  Level Estimated
01:46AM 28.4410 37.1390 100° East  Level Estimated
01:47AM 28.4228 37.2506 101° East  Level Estimated
01:48AM 28.4044 37.3622 101° East  Level Estimated
01:49AM 28.3859 37.4738 101° East  Level Estimated
01:50AM 28.3673 37.5853 101° East  Level Estimated
01:51AM 28.3486 37.6968 101° East  Level Estimated
01:52AM 28.3299 37.8083 101° East  Level Estimated
01:53AM 28.3110 37.9197 101° East  Level Estimated
01:54AM 28.2921 38.0311 101° East  Level Estimated
01:55AM 28.2731 38.1424 101° East  Level Estimated
01:56AM 28.2539 38.2537 101° East  Level Estimated
01:57AM 28.2347 38.3650 101° East  Level Estimated
01:58AM 28.2154 38.4762 101° East  Level Estimated
01:59AM 28.1960 38.5874 101° East  Level Estimated
02:00AM 28.1765 38.6985 101° East  Level Estimated
02:01AM 28.1570 38.8096 101° East  Level Estimated
02:02AM 28.1373 38.9207 101° East  Level Estimated
02:03AM 28.1176 39.0317 101° East  Level Estimated
02:04AM 28.0977 39.1427 101° East  Level Estimated
02:05AM 28.0778 39.2536 101° East  Level Estimated
02:06AM 28.0578 39.3645 102° East  Level Estimated
02:07AM 28.0377 39.4753 102° East  Level Estimated
02:08AM 28.0175 39.5862 102° East  Level Estimated
02:09AM 27.9972 39.6969 102° East  Level Estimated
02:10AM 27.9769 39.8076 102° East  Level Estimated
02:11AM 27.9564 39.9183 102° East  Level Estimated
02:12AM 27.9358 40.0290 102° East  Level Estimated
02:13AM 27.9152 40.1396 102° East  Level Estimated
02:14AM 27.8945 40.2501 102° East  Level Estimated
02:15AM 27.8737 40.3606 102° East  Level Estimated
02:16AM 27.8528 40.4711 102° East  Level Estimated
02:17AM 27.8318 40.5815 102° East  Level Estimated
02:18AM 27.8107 40.6919 102° East  Level Estimated
02:19AM 27.7895 40.8023 102° East  Level Estimated
02:20AM 27.7683 40.9126 102° East  Level Estimated
02:21AM 27.7470 41.0228 102° East  Level Estimated
02:22AM 27.7255 41.1330 102° East  Level Estimated
02:23AM 27.7040 41.2432 102° East  Level Estimated
02:24AM 27.6824 41.3533 102° East  Level Estimated
02:25AM 27.6607 41.4634 103° East  Level Estimated
02:26AM 27.6390 41.5734 103° East  Level Estimated
02:27AM 27.6171 41.6834 103° East  Level Estimated
02:28AM 27.5951 41.7934 103° East  Level Estimated
02:29AM 27.5731 41.9033 103° East  Level Estimated
02:30AM 27.5510 42.0132 103° East  Level Estimated
02:31AM 27.5288 42.1230 103° East  Level Estimated
02:32AM 27.5065 42.2328 103° East  Level Estimated
02:33AM 27.4841 42.3425 103° East  Level Estimated
02:34AM 27.4616 42.4522 103° East  Level Estimated
02:35AM 27.4391 42.5618 103° East  Level Estimated
02:36AM 27.4165 42.6714 103° East  Level Estimated
02:37AM 27.3937 42.7810 103° East  Level Estimated
02:38AM 27.3709 42.8905 103° East  Level Estimated
02:39AM 27.3480 42.9999 103° East  Level Estimated
02:40AM 27.3251 43.1093 103° East  Level Estimated
02:41AM 27.3020 43.2187 103° East  Level Estimated
02:42AM 27.2788 43.3280 103° East  Level Estimated
02:43AM 27.2556 43.4373 103° East  Level Estimated
02:44AM 27.2323 43.5465 103° East  Level Estimated
02:45AM 27.2089 43.6557 104° East  Level Estimated
02:46AM 27.1854 43.7649 104° East  Level Estimated
02:47AM 27.1618 43.8740 104° East  Level Estimated
02:48AM 27.1382 43.9830 104° East  Level Estimated
02:49AM 27.1144 44.0920 104° East  Level Estimated
02:50AM 27.0906 44.2010 104° East  Level Estimated
02:51AM 27.0667 44.3099 104° East  Level Estimated
02:52AM 27.0427 44.4187 104° East  Level Estimated
02:53AM 27.0186 44.5276 104° East  Level Estimated
02:54AM 26.9945 44.6363 104° East  Level Estimated
02:55AM 26.9702 44.7450 104° East  Level Estimated
02:56AM 26.9459 44.8537 104° East  Level Estimated
02:57AM 26.9215 44.9624 104° East  Level Estimated
02:58AM 26.8970 45.0709 104° East  Level Estimated
02:59AM 26.8724 45.1795 104° East  Level Estimated
03:00AM 26.8477 45.2880 104° East  Level Estimated
03:01AM 26.8230 45.3964 104° East  Level Estimated
03:02AM 26.7982 45.5048 104° East  Level Estimated
03:03AM 26.7733 45.6131 104° East  Level Estimated
03:04AM 26.7483 45.7214 104° East  Level Estimated
03:05AM 26.7232 45.8297 105° East  Level Estimated
03:06AM 26.6981 45.9379 105° East  Level Estimated
03:07AM 26.6728 46.0460 105° East  Level Estimated
03:08AM 26.6475 46.1541 105° East  Level Estimated
03:09AM 26.6221 46.2622 105° East  Level Estimated
03:10AM 26.5966 46.3702 105° East  Level Estimated
03:11AM 26.5711 46.4782 105° East  Level Estimated
03:12AM 26.5454 46.5861 105° East  Level Estimated
03:13AM 26.5197 46.6940 105° East  Level Estimated
03:14AM 26.4939 46.8018 105° East  Level Estimated
03:15AM 26.4680 46.9095 105° East  Level Estimated
03:16AM 26.4420 47.0173 105° East  Level Estimated
03:17AM 26.4160 47.1249 105° East  Level Estimated
03:18AM 26.3898 47.2326 105° East  Level Estimated
03:19AM 26.3636 47.3401 105° East  Level Estimated
03:20AM 26.3373 47.4477 105° East  Level Estimated
03:21AM 26.3110 47.5551 105° East  Level Estimated
03:21AM 25.2520 50.8960 105° East 365 420 11,800  Level FlightAware
03:22AM 26.2845 47.6626 105° East  Level Estimated
03:22AM 25.2500 50.9760 92° East 339 390 11,300  Level FlightAware
03:23AM 25.2480 51.0440 92° East 333 383 10,500 -1,200 Descending FlightAware
03:23AM 25.2470 51.0980 91° East 328 377 9,900 -1,200 Descending FlightAware
03:23AM 25.2460 51.1400 91° East 325 374 9,400 -1,320 Descending FlightAware
03:24AM 25.2390 51.1880 99° East 323 372 8,700 -1,200 Descending FlightAware
03:24AM 25.2190 51.2240 122° Southeast 317 365 8,300 -720 Descending FlightAware
03:25AM 25.2040 51.2500 123° Southeast 307 353 8,200 -720 Descending FlightAware
03:25AM 25.1790 51.2910 124° Southeast 301 346 7,700 -900 Descending FlightAware
03:26AM 25.1580 51.3270 123° Southeast 292 336 7,300 -720 Descending FlightAware
03:26AM 25.1350 51.3650 124° Southeast 274 315 7,000 -660 Descending FlightAware
03:27AM 25.1180 51.3940 123° Southeast 270 311 6,700 -900 Descending FlightAware
03:27AM 25.0970 51.4280 124° Southeast 268 308 6,200 -960 Descending FlightAware
03:27AM 25.0880 51.4430 124° Southeast 267 307 6,000 -720 Descending FlightAware
03:28AM 25.0680 51.4770 123° Southeast 266 306 5,700 -600 Descending FlightAware
03:28AM 25.0530 51.5020 124° Southeast 252 290 5,500 -720 Descending FlightAware
03:28AM 25.0440 51.5170 124° Southeast 240 276 5,300 -540 Descending FlightAware
03:29AM 25.0270 51.5460 123° Southeast 219 252 5,100 -600 Descending FlightAware
03:29AM 25.0160 51.5770 111° Southeast 213 245 4,700 -780 Descending FlightAware
03:30AM 25.0170 51.6050 88° East 210 242 4,400 -660 Descending FlightAware
03:30AM 25.0200 51.6360 84° East 205 236 4,100 -540 Descending FlightAware
03:31AM 25.0290 51.6490 53° Northeast 197 227 4,000 -480 Descending FlightAware
03:31AM 25.0370 51.6530 24° Northeast 190 219 3,900 -480 Descending FlightAware
03:31AM 25.0470 51.6570 20° North 183 211 3,800 -540 Descending FlightAware
03:32AM 25.0960 51.6380 341° North 3,200 -600 Descending FlightAware
03:32AM 25.1100 51.6320 339° North 159 183 3,000 -300 Descending FlightAware
03:33AM 25.1260 51.6240 336° Northwest 159 183 3,000  Level FlightAware
03:36AM 25.2611 51.5651 338° Northwest  Level Estimated
03:37AM 25.2611 51.5651 324° Northwest  Level Estimated
03:38AM 25.2611 51.5651 324° Northwest  Level Estimated
03:39AM 25.2611 51.5651 324° Northwest  Level Estimated
03:40AM 25.2611 51.5651 324° Northwest  Level Estimated
03:41AM 25.2611 51.5651 324° Northwest  Level Estimated
03:42AM 25.2611 51.5651 324° Northwest  Level Estimated
03:43AM 25.2611 51.5651 324° Northwest  Level Estimated
03:44AM 25.2611 51.5651 324° Northwest  Level Estimated
03:45AM 25.2611 51.5651 324° Northwest  Level Estimated
03:46AM 25.2611 51.5651 324° Northwest  Level Estimated
03:47AM 25.2611 51.5651 324° Northwest  Level Estimated
03:48AM 25.2611 51.5651 324° Northwest  Level Estimated
03:49AM 25.2611 51.5651 324° Northwest  Level Estimated
03:50AM 25.2611 51.5651 324° Northwest  Level Estimated